createdAt,value
2023-04-30T00:00:30.511Z,11.29
2023-04-30T00:02:58.192Z,11.26
2023-04-30T00:05:26.089Z,11.24
2023-04-30T00:07:53.777Z,11.22
2023-04-30T00:10:21.458Z,11.18
2023-04-30T00:12:50.566Z,11.27
2023-04-30T00:15:18.317Z,11.28
2023-04-30T00:17:46.529Z,11.22
2023-04-30T00:20:16.097Z,11.21
2023-04-30T00:22:43.902Z,11.22
2023-04-30T00:25:11.681Z,11.22
2023-04-30T00:27:40.865Z,11.16
2023-04-30T00:30:11.587Z,11.06
2023-04-30T00:32:39.288Z,11.01
2023-04-30T00:35:07.742Z,11.02
2023-04-30T00:37:35.410Z,11.06
2023-04-30T00:40:03.241Z,11.01
2023-04-30T00:42:31.046Z,11.10
2023-04-30T00:44:58.949Z,11.13
2023-04-30T00:47:28.125Z,11.16
2023-04-30T00:49:56.287Z,11.11
2023-04-30T00:52:24.589Z,11.14
2023-04-30T00:54:53.893Z,11.05
2023-04-30T00:57:22.216Z,11.10
2023-04-30T00:59:50.270Z,11.06
2023-04-30T01:02:18.391Z,11.01
2023-04-30T01:04:48.030Z,11.03
2023-04-30T01:07:15.894Z,10.97
2023-04-30T01:09:43.707Z,10.95
2023-04-30T01:12:18.029Z,11.00
2023-04-30T01:14:58.163Z,10.86
2023-04-30T01:17:33.565Z,10.87
2023-04-30T01:20:03.963Z,10.85
2023-04-30T01:22:38.292Z,10.86
2023-04-30T01:25:26.676Z,10.86
2023-04-30T01:28:15.813Z,10.83
2023-04-30T01:30:46.400Z,10.87
2023-04-30T01:33:14.684Z,10.77
2023-04-30T01:36:08.784Z,10.85
2023-04-30T01:38:52.128Z,10.83
2023-04-30T01:41:30.983Z,10.82
2023-04-30T01:44:11.595Z,10.81
2023-04-30T01:46:39.527Z,10.88
2023-04-30T01:49:16.974Z,10.86
2023-04-30T01:51:45.897Z,10.84
2023-04-30T01:54:21.295Z,10.76
2023-04-30T01:56:54.996Z,10.75
2023-04-30T01:59:24.696Z,10.81
2023-04-30T02:01:53.993Z,10.85
2023-04-30T02:04:22.016Z,10.81
2023-04-30T02:06:49.751Z,10.85
2023-04-30T02:09:17.468Z,10.84
2023-04-30T02:11:45.321Z,10.84
2023-04-30T02:14:13.088Z,10.81
2023-04-30T02:16:42.881Z,10.82
2023-04-30T02:19:11.153Z,10.80
2023-04-30T02:21:38.937Z,10.80
2023-04-30T02:24:07.482Z,10.73
2023-04-30T02:26:35.302Z,10.73
2023-04-30T02:29:03.196Z,10.74
2023-04-30T02:31:30.940Z,10.70
2023-04-30T02:34:00.104Z,10.71
2023-04-30T02:36:28.303Z,10.71
2023-04-30T02:38:56.154Z,10.72
2023-04-30T02:41:24.071Z,10.65
2023-04-30T02:43:52.794Z,10.66
2023-04-30T02:46:20.944Z,10.60
2023-04-30T02:48:48.647Z,10.52
2023-04-30T02:51:18.192Z,10.49
2023-04-30T02:53:46.001Z,10.56
2023-04-30T02:56:14.022Z,10.51
2023-04-30T02:58:42.350Z,10.46
2023-04-30T03:01:10.050Z,10.55
2023-04-30T03:03:37.866Z,10.55
2023-04-30T03:06:06.167Z,10.55
2023-04-30T03:08:35.452Z,10.50
2023-04-30T03:11:03.359Z,10.49
2023-04-30T03:13:31.141Z,10.46
2023-04-30T03:16:00.222Z,10.45
2023-04-30T03:18:28.342Z,10.43
2023-04-30T03:20:56.119Z,10.49
2023-04-30T03:23:23.841Z,10.41
2023-04-30T03:25:53.525Z,10.45
2023-04-30T03:28:21.726Z,10.39
2023-04-30T03:30:49.705Z,10.33
2023-04-30T03:33:17.495Z,10.43
2023-04-30T03:35:45.231Z,10.49
2023-04-30T03:38:13.128Z,10.37
2023-04-30T03:40:40.928Z,10.33
2023-04-30T03:43:10.165Z,10.30
2023-04-30T03:45:37.915Z,10.24
2023-04-30T03:48:06.263Z,10.30
2023-04-30T03:50:34.093Z,10.34
2023-04-30T03:53:02.102Z,10.30
2023-04-30T03:55:29.907Z,10.29
2023-04-30T03:57:58.443Z,10.35
2023-04-30T04:00:27.508Z,10.33
2023-04-30T04:02:56.040Z,10.33
2023-04-30T04:05:23.919Z,10.33
2023-04-30T04:07:51.598Z,10.35
2023-04-30T04:10:19.521Z,10.39
2023-04-30T04:12:50.271Z,10.32
2023-04-30T04:15:18.548Z,10.33
2023-04-30T04:17:48.121Z,10.34
2023-04-30T04:20:20.758Z,10.24
2023-04-30T04:22:50.554Z,10.23
2023-04-30T04:25:19.162Z,10.28
2023-04-30T04:27:47.451Z,10.34
2023-04-30T04:30:16.604Z,10.36
2023-04-30T04:32:53.818Z,10.39
2023-04-30T04:35:24.516Z,10.39
2023-04-30T04:37:56.285Z,10.37
2023-04-30T04:40:23.986Z,10.36
2023-04-30T04:42:52.431Z,10.40
2023-04-30T04:45:21.900Z,10.40
2023-04-30T04:47:50.394Z,10.32
2023-04-30T04:50:19.222Z,10.42
2023-04-30T04:52:48.401Z,10.49
2023-04-30T04:55:19.084Z,10.49
2023-04-30T04:57:50.261Z,10.58
2023-04-30T05:00:19.262Z,10.51
2023-04-30T05:02:48.609Z,10.61
2023-04-30T05:05:18.578Z,10.54
2023-04-30T05:07:52.716Z,10.66
2023-04-30T05:10:21.806Z,10.76
2023-04-30T05:12:50.322Z,10.68
2023-04-30T05:15:18.174Z,10.77
2023-04-30T05:17:48.564Z,10.83
2023-04-30T05:20:16.370Z,10.79
2023-04-30T05:22:46.378Z,10.81
2023-04-30T05:25:17.760Z,10.80
2023-04-30T05:27:45.517Z,10.85
2023-04-30T05:30:15.707Z,11.08
2023-04-30T05:32:50.712Z,11.07
2023-04-30T05:35:18.802Z,10.97
2023-04-30T05:37:47.544Z,11.12
2023-04-30T05:40:16.994Z,11.15
2023-04-30T05:42:46.411Z,11.13
2023-04-30T05:45:17.542Z,10.98
2023-04-30T05:47:47.395Z,11.19
2023-04-30T05:50:16.635Z,11.32
2023-04-30T05:52:44.955Z,11.28
2023-04-30T05:55:13.064Z,11.22
2023-04-30T05:57:46.042Z,11.29
2023-04-30T06:00:15.916Z,11.25
2023-04-30T06:02:44.060Z,11.35
2023-04-30T06:05:16.382Z,11.20
2023-04-30T06:07:45.390Z,11.33
2023-04-30T06:10:13.567Z,11.50
2023-04-30T06:12:43.017Z,11.67
2023-04-30T06:15:11.263Z,11.70
2023-04-30T06:17:39.448Z,11.70
2023-04-30T06:20:08.654Z,11.92
2023-04-30T06:22:36.761Z,12.05
2023-04-30T06:25:04.851Z,12.32
2023-04-30T06:27:32.994Z,12.21
2023-04-30T06:30:02.031Z,12.37
2023-04-30T06:32:29.959Z,12.36
2023-04-30T06:34:57.702Z,12.53
2023-04-30T06:37:25.475Z,12.85
2023-04-30T06:39:53.810Z,12.90
2023-04-30T06:42:21.873Z,13.30
2023-04-30T06:44:49.553Z,13.47
2023-04-30T06:47:18.653Z,13.59
2023-04-30T06:49:46.315Z,13.87
2023-04-30T06:52:14.089Z,14.49
2023-04-30T06:54:42.952Z,14.74
2023-04-30T06:57:10.709Z,15.75
2023-04-30T06:59:39.623Z,16.77
2023-04-30T07:02:08.019Z,18.82
2023-04-30T07:04:37.225Z,20.39
2023-04-30T07:07:05.369Z,21.18
2023-04-30T07:09:33.545Z,22.78
2023-04-30T07:12:01.682Z,22.85
2023-04-30T07:14:29.801Z,22.28
2023-04-30T07:16:59.446Z,21.96
2023-04-30T07:19:32.615Z,20.96
2023-04-30T07:22:02.111Z,21.01
2023-04-30T07:24:30.203Z,22.69
2023-04-30T07:27:05.344Z,21.06
2023-04-30T07:29:34.114Z,23.54
2023-04-30T07:32:03.391Z,23.52
2023-04-30T07:34:31.241Z,26.38
2023-04-30T07:36:58.887Z,24.69
2023-04-30T07:39:28.223Z,25.02
2023-04-30T07:41:55.973Z,26.19
2023-04-30T07:44:23.773Z,25.54
2023-04-30T07:46:51.810Z,22.65
2023-04-30T07:49:19.835Z,24.58
2023-04-30T07:51:47.608Z,25.94
2023-04-30T07:54:15.747Z,26.41
2023-04-30T07:56:45.162Z,23.85
2023-04-30T07:59:12.961Z,20.29
2023-04-30T08:01:41.259Z,23.14
2023-04-30T08:04:09.749Z,21.57
2023-04-30T08:06:37.649Z,23.37
2023-04-30T08:09:05.695Z,22.57
2023-04-30T08:11:34.548Z,22.97
2023-04-30T08:14:04.669Z,24.84
2023-04-30T08:16:32.582Z,25.37
2023-04-30T08:19:01.556Z,26.22
2023-04-30T08:21:29.737Z,24.58
2023-04-30T08:23:58.204Z,23.74
2023-04-30T08:26:27.211Z,22.26
2023-04-30T08:28:55.350Z,19.17
2023-04-30T08:31:24.776Z,18.25
2023-04-30T08:33:58.473Z,17.51
2023-04-30T08:36:27.640Z,19.73
2023-04-30T08:38:55.746Z,20.68
2023-04-30T08:41:29.397Z,21.40
2023-04-30T08:44:00.936Z,23.00
2023-04-30T08:46:32.952Z,24.92
2023-04-30T08:49:04.336Z,25.71
2023-04-30T08:51:33.793Z,24.01
2023-04-30T08:54:01.639Z,25.49
2023-04-30T08:56:32.277Z,25.37
2023-04-30T08:58:59.933Z,24.55
2023-04-30T09:01:33.940Z,24.71
2023-04-30T09:04:04.401Z,25.12
2023-04-30T09:06:32.395Z,23.57
2023-04-30T09:09:10.747Z,23.07
2023-04-30T09:11:39.622Z,22.55
2023-04-30T09:14:10.964Z,23.95
2023-04-30T09:16:50.735Z,25.05
2023-04-30T09:19:29.287Z,26.33
2023-04-30T09:21:57.578Z,24.87
2023-04-30T09:24:25.883Z,23.05
2023-04-30T09:26:55.131Z,23.33
2023-04-30T09:29:22.828Z,24.44
2023-04-30T09:31:54.463Z,26.35
2023-04-30T09:34:35.190Z,27.06
2023-04-30T09:37:04.149Z,25.07
2023-04-30T09:39:34.031Z,23.80
2023-04-30T09:42:11.486Z,23.95
2023-04-30T09:44:41.671Z,23.58
2023-04-30T09:47:14.791Z,24.24
2023-04-30T09:49:44.505Z,25.30
2023-04-30T09:52:12.833Z,23.43
2023-04-30T09:54:42.161Z,23.44
2023-04-30T09:57:12.419Z,24.60
2023-04-30T09:59:44.954Z,24.72
2023-04-30T10:02:16.689Z,23.32
2023-04-30T10:04:46.128Z,25.16
2023-04-30T10:07:17.181Z,24.54
2023-04-30T10:09:51.818Z,23.70
2023-04-30T10:12:25.628Z,22.46
2023-04-30T10:14:58.524Z,21.53
2023-04-30T10:17:32.256Z,21.28
2023-04-30T10:20:05.845Z,21.76
2023-04-30T10:22:35.937Z,21.93
2023-04-30T10:25:05.849Z,20.57
2023-04-30T10:27:34.212Z,20.47
2023-04-30T10:30:03.781Z,21.64
2023-04-30T10:32:39.022Z,21.76
2023-04-30T10:35:13.467Z,20.23
2023-04-30T10:37:47.462Z,21.45
2023-04-30T10:40:15.314Z,20.83
2023-04-30T10:42:47.415Z,21.28
2023-04-30T10:45:17.329Z,22.62
2023-04-30T10:47:48.831Z,22.11
2023-04-30T10:50:16.686Z,21.24
2023-04-30T10:52:48.681Z,20.79
2023-04-30T10:55:21.626Z,21.33
2023-04-30T10:57:51.591Z,21.70
2023-04-30T11:00:20.951Z,20.69
2023-04-30T11:02:50.311Z,21.48
2023-04-30T11:05:19.569Z,22.54
2023-04-30T11:07:50.054Z,22.11
2023-04-30T11:10:18.525Z,22.26
2023-04-30T11:12:50.728Z,21.07
2023-04-30T11:15:20.025Z,20.33
2023-04-30T11:17:50.727Z,20.72
2023-04-30T11:20:21.532Z,20.64
2023-04-30T11:22:49.465Z,20.47
2023-04-30T11:25:23.306Z,20.24
2023-04-30T11:28:02.946Z,20.75
2023-04-30T11:30:32.102Z,20.93
2023-04-30T11:33:02.010Z,20.78
2023-04-30T11:35:30.182Z,21.78
2023-04-30T11:37:59.246Z,21.85
2023-04-30T11:40:27.814Z,21.40
2023-04-30T11:42:57.399Z,21.57
2023-04-30T11:45:27.273Z,21.04
2023-04-30T11:47:57.014Z,21.74
2023-04-30T11:50:28.900Z,21.60
2023-04-30T11:52:59.481Z,20.98
2023-04-30T11:55:29.945Z,20.50
2023-04-30T11:58:00.729Z,21.27
2023-04-30T12:00:33.421Z,21.46
2023-04-30T12:03:04.060Z,21.38
2023-04-30T12:05:31.918Z,21.59
2023-04-30T12:08:04.396Z,21.63
2023-04-30T12:10:32.902Z,21.03
2023-04-30T12:13:00.617Z,21.45
2023-04-30T12:15:30.595Z,20.55
2023-04-30T12:17:59.629Z,21.33
2023-04-30T12:20:29.978Z,21.17
2023-04-30T12:22:58.785Z,21.57
2023-04-30T12:25:29.685Z,20.86
2023-04-30T12:28:00.412Z,21.30
2023-04-30T12:30:30.724Z,20.53
2023-04-30T12:33:00.373Z,20.88
2023-04-30T12:35:31.123Z,21.21
2023-04-30T12:38:03.554Z,20.16
2023-04-30T12:40:32.300Z,20.24
2023-04-30T12:43:05.635Z,19.81
2023-04-30T12:45:51.285Z,19.47
2023-04-30T12:48:20.515Z,19.89
2023-04-30T12:50:55.597Z,19.33
2023-04-30T12:53:24.500Z,19.48
2023-04-30T12:56:14.483Z,19.60
2023-04-30T12:58:45.454Z,19.70
2023-04-30T13:01:18.436Z,20.21
2023-04-30T13:03:48.712Z,20.26
2023-04-30T13:06:16.612Z,19.55
2023-04-30T13:08:57.347Z,19.56
2023-04-30T13:11:27.790Z,19.75
2023-04-30T13:13:56.590Z,19.90
2023-04-30T13:16:26.267Z,18.95
2023-04-30T13:18:54.323Z,19.32
2023-04-30T13:21:22.156Z,19.52
2023-04-30T13:23:53.393Z,18.94
2023-04-30T13:26:24.128Z,18.96
2023-04-30T13:28:51.943Z,19.40
2023-04-30T13:31:19.969Z,19.53
2023-04-30T13:33:49.369Z,19.72
2023-04-30T13:36:18.364Z,19.35
2023-04-30T13:38:48.673Z,19.18
2023-04-30T13:41:17.794Z,18.96
2023-04-30T13:43:47.973Z,19.48
2023-04-30T13:46:16.724Z,19.74
2023-04-30T13:48:48.103Z,19.70
2023-04-30T13:51:17.199Z,19.70
2023-04-30T13:53:44.997Z,19.61
2023-04-30T13:56:12.765Z,19.09
2023-04-30T13:58:44.780Z,19.65
2023-04-30T14:01:13.891Z,19.68
2023-04-30T14:03:42.181Z,19.40
2023-04-30T14:06:10.567Z,19.43
2023-04-30T14:08:39.755Z,19.20
2023-04-30T14:11:07.621Z,19.25
2023-04-30T14:13:35.855Z,18.92
2023-04-30T14:16:04.158Z,18.73
2023-04-30T14:18:34.463Z,19.28
2023-04-30T14:21:02.173Z,19.15
2023-04-30T14:23:29.975Z,18.88
2023-04-30T14:26:00.366Z,19.06
2023-04-30T14:28:29.772Z,19.41
2023-04-30T14:30:57.783Z,19.42
2023-04-30T14:33:26.721Z,19.22
2023-04-30T14:35:55.763Z,18.84
2023-04-30T14:38:23.751Z,18.67
2023-04-30T14:40:51.754Z,18.64
2023-04-30T14:43:21.437Z,18.62
2023-04-30T14:45:49.342Z,18.38
2023-04-30T14:48:18.488Z,18.37
2023-04-30T14:50:46.462Z,18.76
2023-04-30T14:53:14.697Z,18.76
2023-04-30T14:55:42.638Z,18.51
2023-04-30T14:58:10.439Z,18.61
2023-04-30T15:00:39.775Z,18.67
2023-04-30T15:03:07.789Z,18.59
2023-04-30T15:05:35.748Z,18.86
2023-04-30T15:08:03.512Z,18.92
2023-04-30T15:10:31.606Z,19.02
2023-04-30T15:12:59.355Z,18.76
2023-04-30T15:15:29.122Z,18.56
2023-04-30T15:17:59.216Z,18.47
2023-04-30T15:20:27.912Z,18.63
2023-04-30T15:22:55.842Z,18.60
2023-04-30T15:25:24.201Z,18.44
2023-04-30T15:27:52.108Z,18.68
2023-04-30T15:30:21.516Z,18.66
2023-04-30T15:32:50.402Z,18.82
2023-04-30T15:35:20.012Z,19.12
2023-04-30T15:37:47.777Z,18.78
2023-04-30T15:40:16.015Z,18.42
2023-04-30T15:42:44.129Z,18.14
2023-04-30T15:45:12.370Z,18.07
2023-04-30T15:47:40.363Z,17.79
2023-04-30T15:50:09.796Z,17.89
2023-04-30T15:52:40.169Z,17.84
2023-04-30T15:55:09.164Z,17.94
2023-04-30T15:57:37.211Z,18.01
2023-04-30T16:00:05.578Z,18.01
2023-04-30T16:02:33.310Z,18.07
2023-04-30T16:05:01.309Z,17.92
2023-04-30T16:07:32.109Z,18.09
2023-04-30T16:10:02.189Z,18.39
2023-04-30T16:12:30.182Z,18.39
2023-04-30T16:14:59.849Z,18.38
2023-04-30T16:17:30.133Z,18.52
2023-04-30T16:19:58.240Z,18.45
2023-04-30T16:22:27.347Z,18.26
2023-04-30T16:24:55.420Z,18.18
2023-04-30T16:27:25.404Z,18.14
2023-04-30T16:29:54.385Z,17.96
2023-04-30T16:32:22.329Z,17.81
2023-04-30T16:34:50.317Z,17.83
2023-04-30T16:37:18.530Z,17.89
2023-04-30T16:39:46.568Z,17.74
2023-04-30T16:42:14.533Z,17.64
2023-04-30T16:44:46.592Z,17.59
2023-04-30T16:47:14.462Z,17.42
2023-04-30T16:49:42.331Z,17.48
2023-04-30T16:52:10.263Z,17.47
2023-04-30T16:54:37.950Z,17.46
2023-04-30T16:57:05.967Z,17.51
2023-04-30T16:59:34.160Z,17.66
2023-04-30T17:02:03.910Z,17.70
2023-04-30T17:04:32.864Z,17.62
2023-04-30T17:07:03.814Z,17.74
2023-04-30T17:09:31.868Z,17.68
2023-04-30T17:12:00.162Z,17.59
2023-04-30T17:14:29.296Z,17.57
2023-04-30T17:16:57.658Z,17.45
2023-04-30T17:19:26.845Z,17.38
2023-04-30T17:21:55.065Z,17.36
2023-04-30T17:24:24.579Z,17.38
2023-04-30T17:26:52.742Z,17.27
2023-04-30T17:29:21.388Z,17.35
2023-04-30T17:31:49.373Z,17.30
2023-04-30T17:34:17.371Z,17.26
2023-04-30T17:36:46.735Z,17.35
2023-04-30T17:39:14.551Z,17.35
2023-04-30T17:41:43.251Z,17.13
2023-04-30T17:44:11.809Z,17.04
2023-04-30T17:46:41.944Z,17.07
2023-04-30T17:49:10.090Z,16.96
2023-04-30T17:51:37.885Z,16.92
2023-04-30T17:54:07.244Z,16.87
2023-04-30T17:56:37.198Z,16.82
2023-04-30T17:59:04.903Z,16.73
2023-04-30T18:01:33.978Z,16.79
2023-04-30T18:04:04.105Z,16.68
2023-04-30T18:06:32.318Z,16.73
2023-04-30T18:09:01.427Z,16.57
2023-04-30T18:11:30.803Z,16.58
2023-04-30T18:13:58.881Z,16.53
2023-04-30T18:16:26.967Z,16.47
2023-04-30T18:18:54.691Z,16.49
2023-04-30T18:21:22.692Z,16.52
2023-04-30T18:23:50.592Z,16.40
2023-04-30T18:26:23.812Z,16.36
2023-04-30T18:28:54.217Z,16.23
2023-04-30T18:31:22.884Z,16.25
2023-04-30T18:33:50.671Z,16.19
2023-04-30T18:36:18.703Z,16.17
2023-04-30T18:38:46.713Z,16.10
2023-04-30T18:41:14.816Z,16.06
2023-04-30T18:43:45.700Z,15.97
2023-04-30T18:46:15.403Z,15.95
2023-04-30T18:48:44.421Z,15.92
2023-04-30T18:51:12.207Z,15.87
2023-04-30T18:53:45.142Z,15.81
2023-04-30T18:56:14.483Z,15.80
2023-04-30T18:58:46.733Z,15.70
2023-04-30T19:01:16.700Z,15.67
2023-04-30T19:03:44.786Z,15.70
2023-04-30T19:06:12.628Z,15.61
2023-04-30T19:08:40.475Z,15.56
2023-04-30T19:11:11.390Z,15.51
2023-04-30T19:13:39.297Z,15.47
2023-04-30T19:16:07.843Z,15.42
2023-04-30T19:18:38.582Z,15.40
2023-04-30T19:21:07.220Z,15.38
2023-04-30T19:23:35.715Z,15.31
2023-04-30T19:26:03.937Z,15.25
2023-04-30T19:28:31.865Z,15.23
2023-04-30T19:30:59.793Z,15.20
2023-04-30T19:33:28.325Z,15.13
2023-04-30T19:35:57.700Z,15.04
2023-04-30T19:38:25.907Z,15.05
2023-04-30T19:40:55.421Z,15.04
2023-04-30T19:43:25.268Z,14.99
2023-04-30T19:45:59.284Z,14.98
2023-04-30T19:48:27.334Z,14.88
2023-04-30T19:51:01.240Z,14.86
2023-04-30T19:53:30.929Z,14.77
2023-04-30T19:56:00.061Z,14.67
2023-04-30T19:58:33.645Z,14.71
2023-04-30T20:01:02.877Z,14.61
2023-04-30T20:03:34.205Z,14.55
2023-04-30T20:06:05.952Z,14.54
2023-04-30T20:08:35.190Z,14.49
2023-04-30T20:11:08.598Z,14.48
2023-04-30T20:13:36.651Z,14.45
2023-04-30T20:16:09.676Z,14.40
2023-04-30T20:18:38.618Z,14.37
2023-04-30T20:21:12.923Z,14.27
2023-04-30T20:23:49.313Z,14.26
2023-04-30T20:26:22.818Z,14.09
2023-04-30T20:28:54.922Z,13.96
2023-04-30T20:31:31.133Z,13.88
2023-04-30T20:34:03.838Z,13.87
2023-04-30T20:36:38.940Z,14.01
2023-04-30T20:39:19.106Z,13.77
2023-04-30T20:41:49.898Z,13.79
2023-04-30T20:44:20.186Z,13.82
2023-04-30T20:46:49.053Z,13.79
2023-04-30T20:49:20.981Z,13.77
2023-04-30T20:52:04.407Z,13.75
2023-04-30T20:54:41.729Z,13.65
2023-04-30T20:57:13.480Z,13.63
2023-04-30T20:59:47.395Z,13.64
2023-04-30T21:02:15.674Z,13.52
2023-04-30T21:04:48.394Z,13.43
2023-04-30T21:07:17.769Z,13.34
2023-04-30T21:09:48.464Z,13.30
2023-04-30T21:12:18.846Z,13.23
2023-04-30T21:14:48.778Z,13.24
2023-04-30T21:17:17.075Z,13.15
2023-04-30T21:19:47.222Z,13.03
2023-04-30T21:22:16.132Z,12.97
2023-04-30T21:24:44.080Z,13.00
2023-04-30T21:27:13.845Z,12.91
2023-04-30T21:29:44.799Z,12.89
2023-04-30T21:32:12.757Z,12.71
2023-04-30T21:34:40.503Z,12.83
2023-04-30T21:37:08.916Z,12.73
2023-04-30T21:39:37.701Z,12.66
2023-04-30T21:42:05.812Z,12.52
2023-04-30T21:44:36.403Z,12.53
2023-04-30T21:47:04.782Z,12.49
2023-04-30T21:49:36.666Z,12.39
2023-04-30T21:52:08.155Z,12.28
2023-04-30T21:54:37.589Z,12.29
2023-04-30T21:57:08.591Z,12.19
2023-04-30T21:59:43.121Z,12.16
2023-04-30T22:02:22.910Z,12.27
2023-04-30T22:04:55.462Z,12.12
2023-04-30T22:07:34.028Z,12.19
2023-04-30T22:10:06.325Z,12.01
2023-04-30T22:12:35.526Z,11.94
2023-04-30T22:15:07.022Z,11.83
2023-04-30T22:17:35.106Z,11.82
2023-04-30T22:20:08.889Z,11.84
2023-04-30T22:22:37.918Z,11.78
2023-04-30T22:25:06.771Z,11.76
2023-04-30T22:27:35.881Z,11.90
2023-04-30T22:30:07.864Z,11.73
2023-04-30T22:32:38.134Z,11.80
2023-04-30T22:35:10.378Z,11.72
2023-04-30T22:37:39.270Z,11.72
2023-04-30T22:40:08.258Z,11.72
2023-04-30T22:42:36.763Z,11.80
2023-04-30T22:45:07.605Z,11.72
2023-04-30T22:47:35.791Z,11.68
2023-04-30T22:50:04.841Z,11.75
2023-04-30T22:52:33.745Z,11.67
2023-04-30T22:55:02.980Z,11.68
2023-04-30T22:57:30.896Z,11.66
2023-04-30T22:59:59.329Z,11.60
2023-04-30T23:02:29.123Z,11.56
2023-04-30T23:04:56.951Z,11.56
2023-04-30T23:07:24.812Z,11.56
2023-04-30T23:09:52.558Z,11.50
2023-04-30T23:12:20.559Z,11.52
2023-04-30T23:14:49.357Z,11.42
2023-04-30T23:17:20.968Z,11.42
2023-04-30T23:19:50.324Z,11.36
2023-04-30T23:22:19.432Z,11.37
2023-04-30T23:24:47.555Z,11.39
2023-04-30T23:27:15.390Z,11.30
2023-04-30T23:29:46.780Z,11.14
2023-04-30T23:32:14.454Z,11.18
2023-04-30T23:34:42.240Z,11.19
2023-04-30T23:37:11.601Z,11.14
2023-04-30T23:39:39.336Z,11.07
2023-04-30T23:42:10.570Z,11.00
2023-04-30T23:44:38.367Z,10.99
2023-04-30T23:47:07.438Z,11.04
2023-04-30T23:49:35.798Z,11.05
2023-04-30T23:52:03.495Z,11.13
2023-04-30T23:54:32.864Z,11.04
2023-04-30T23:57:02.054Z,10.95
2023-04-30T23:59:31.023Z,10.97
